Time;durP1;ratioP1;P1;durP2;ratioP2;P2;SDS_P1;SDS_P2;PMS_P1;PMS_P2;Temp;Humidity;BMP_temperature;BMP_pressure;BME280_temperature;BME280_humidity;BME280_pressure;Samples;Min_cycle;Max_cycle;Signal;HPM_P1;HPM_P2
2023/10/08 00:00:46;;;;;;;7.13;1.85;;;;;;;;;;5032870;28;20095;-79
2023/10/08 00:03:14;;;;;;;7.47;2.90;;;;;;;;;;5033251;28;20057;-79
2023/10/08 00:05:41;;;;;;;5.13;2.30;;;;;;;;;;5045184;28;21110;-79
2023/10/08 00:08:09;;;;;;;6.32;2.58;;;;;;;;;;5038863;28;20041;-79
2023/10/08 00:10:38;;;;;;;9.77;2.50;;;;;;;;;;5039126;28;20049;-78
2023/10/08 00:13:07;;;;;;;7.57;2.55;;;;;;;;;;5032267;28;20363;-79
2023/10/08 00:15:36;;;;;;;6.85;2.67;;;;;;;;;;5033361;28;20585;-79
2023/10/08 00:18:05;;;;;;;6.78;2.63;;;;;;;;;;5038885;28;20052;-79
2023/10/08 00:20:42;;;;;;;6.28;2.55;;;;;;;;;;5032612;28;20052;-80
2023/10/08 00:23:09;;;;;;;9.43;2.63;;;;;;;;;;5040851;28;20048;-79
2023/10/08 00:25:40;;;;;;;4.97;2.38;;;;;;;;;;5032687;28;20148;-79
2023/10/08 00:28:10;;;;;;;6.45;2.65;;;;;;;;;;5037971;28;20518;-78
2023/10/08 00:30:41;;;;;;;8.00;2.42;;;;;;;;;;5012146;28;20128;-80
2023/10/08 00:33:08;;;;;;;8.30;2.35;;;;;;;;;;5020147;28;20042;-79
2023/10/08 00:35:40;;;;;;;8.30;2.40;;;;;;;;;;5024785;28;20077;-78
2023/10/08 00:38:20;;;;;;;10.38;3.00;;;;;;;;;;5036323;28;20076;-81
2023/10/08 00:40:50;;;;;;;10.07;2.78;;;;;;;;;;5033443;28;20045;-79
2023/10/08 00:43:32;;;;;;;11.32;2.85;;;;;;;;;;5032677;28;20056;-80
2023/10/08 00:45:59;;;;;;;8.23;2.97;;;;;;;;;;5048841;28;20223;-79
2023/10/08 00:48:34;;;;;;;7.60;2.53;;;;;;;;;;5030961;28;20048;-79
2023/10/08 00:53:50;;;;;;;8.70;2.88;;;;;;;;;;5033746;28;20106;-79
2023/10/08 00:56:19;;;;;;;7.75;2.63;;;;;;;;;;5031142;28;20073;-79
2023/10/08 00:58:49;;;;;;;7.45;2.80;;;;;;;;;;5032400;28;20054;-79
2023/10/08 01:01:16;;;;;;;8.05;3.35;;;;;;;;;;5040135;28;20077;-79
2023/10/08 01:03:47;;;;;;;5.47;2.47;;;;;;;;;;5037939;28;20045;-80
2023/10/08 01:06:18;;;;;;;6.63;2.65;;;;;;;;;;5046492;28;20789;-79
2023/10/08 01:08:52;;;;;;;9.02;2.63;;;;;;;;;;5031426;28;20041;-78
2023/10/08 01:11:33;;;;;;;9.50;3.13;;;;;;;;;;5031100;28;20049;-80
2023/10/08 01:14:00;;;;;;;6.38;2.42;;;;;;;;;;5041778;28;20123;-79
2023/10/08 01:16:27;;;;;;;8.10;2.80;;;;;;;;;;5027541;28;20041;-79
2023/10/08 01:18:54;;;;;;;10.68;2.60;;;;;;;;;;5035631;28;20867;-80
2023/10/08 01:21:34;;;;;;;7.78;2.55;;;;;;;;;;5032395;28;20065;-79
2023/10/08 01:24:02;;;;;;;7.00;2.88;;;;;;;;;;5033416;28;21559;-79
2023/10/08 01:26:31;;;;;;;9.75;2.90;;;;;;;;;;4999733;28;20579;-79
2023/10/08 01:29:03;;;;;;;6.00;2.90;;;;;;;;;;5017716;28;20381;-79
2023/10/08 01:31:30;;;;;;;8.13;2.95;;;;;;;;;;5031591;28;20117;-78
2023/10/08 01:33:56;;;;;;;11.48;3.15;;;;;;;;;;5025591;28;20038;-79
2023/10/08 01:36:26;;;;;;;5.57;2.28;;;;;;;;;;5016045;28;20108;-78
2023/10/08 01:38:54;;;;;;;8.07;2.72;;;;;;;;;;5023196;28;20129;-78
2023/10/08 01:41:29;;;;;;;6.65;2.55;;;;;;;;;;5017449;28;20056;-77
2023/10/08 01:43:59;;;;;;;9.13;3.03;;;;;;;;;;5023303;28;20061;-78
2023/10/08 01:46:27;;;;;;;6.57;2.42;;;;;;;;;;5030448;28;21088;-79
2023/10/08 01:49:06;;;;;;;8.27;2.67;;;;;;;;;;5028876;28;20079;-78
2023/10/08 01:51:38;;;;;;;6.70;3.00;;;;;;;;;;5045599;28;20077;-79
2023/10/08 01:54:10;;;;;;;7.25;2.78;;;;;;;;;;5056715;28;20615;-79
2023/10/08 01:56:41;;;;;;;10.90;3.05;;;;;;;;;;5027059;28;20224;-78
2023/10/08 01:59:09;;;;;;;9.35;3.10;;;;;;;;;;5036921;28;20045;-78
2023/10/08 02:01:38;;;;;;;7.35;2.78;;;;;;;;;;5037292;28;20680;-78
2023/10/08 02:04:07;;;;;;;5.68;2.50;;;;;;;;;;5028413;28;20045;-80
2023/10/08 02:06:34;;;;;;;6.28;2.63;;;;;;;;;;5047337;28;20060;-78
2023/10/08 02:09:07;;;;;;;11.73;3.47;;;;;;;;;;5050463;28;20467;-78
2023/10/08 02:11:50;;;;;;;7.53;2.72;;;;;;;;;;5037085;28;20430;-80
2023/10/08 02:14:18;;;;;;;8.90;2.95;;;;;;;;;;5040929;28;20068;-79
2023/10/08 02:16:45;;;;;;;8.15;2.90;;;;;;;;;;5039605;28;20045;-81
2023/10/08 02:19:12;;;;;;;7.95;3.08;;;;;;;;;;5032673;28;20103;-80
2023/10/08 02:21:40;;;;;;;6.20;2.88;;;;;;;;;;5033226;28;20033;-81
2023/10/08 02:24:07;;;;;;;7.38;2.85;;;;;;;;;;5049888;28;20067;-81
2023/10/08 02:26:37;;;;;;;5.88;2.80;;;;;;;;;;5050818;28;20096;-79
2023/10/08 02:29:10;;;;;;;7.88;3.20;;;;;;;;;;5031560;28;20201;-79
2023/10/08 02:31:38;;;;;;;8.30;3.10;;;;;;;;;;5019497;28;20062;-80
2023/10/08 02:34:07;;;;;;;7.80;3.22;;;;;;;;;;5034508;28;20114;-82
2023/10/08 02:36:36;;;;;;;9.43;2.92;;;;;;;;;;5026781;28;20125;-82
2023/10/08 02:39:13;;;;;;;9.77;3.35;;;;;;;;;;5030382;28;20666;-79
2023/10/08 02:41:45;;;;;;;8.68;3.25;;;;;;;;;;5009121;28;20115;-81
2023/10/08 02:44:14;;;;;;;10.13;3.47;;;;;;;;;;4996677;28;20049;-81
2023/10/08 02:46:41;;;;;;;11.48;2.95;;;;;;;;;;5014253;28;20049;-81
2023/10/08 02:49:12;;;;;;;7.93;3.13;;;;;;;;;;5016799;28;20123;-79
2023/10/08 02:51:40;;;;;;;12.57;3.88;;;;;;;;;;5008254;28;20092;-79
2023/10/08 02:54:17;;;;;;;10.82;3.60;;;;;;;;;;5018981;28;20156;-80
2023/10/08 02:56:51;;;;;;;8.70;3.33;;;;;;;;;;4989007;28;20771;-79
2023/10/08 02:59:20;;;;;;;8.88;2.83;;;;;;;;;;5019884;28;20056;-79
2023/10/08 03:01:49;;;;;;;7.03;3.17;;;;;;;;;;5017394;28;20050;-79
2023/10/08 03:04:18;;;;;;;7.00;2.75;;;;;;;;;;5020087;28;20069;-78
2023/10/08 03:06:51;;;;;;;10.57;3.15;;;;;;;;;;5002974;28;20042;-80
2023/10/08 03:09:23;;;;;;;13.93;3.70;;;;;;;;;;5011804;28;20054;-80
2023/10/08 03:11:50;;;;;;;8.90;2.92;;;;;;;;;;5003795;28;20046;-81
2023/10/08 03:14:23;;;;;;;12.77;3.58;;;;;;;;;;5002640;28;20247;-81
2023/10/08 03:16:51;;;;;;;5.95;2.90;;;;;;;;;;5012838;28;20107;-81
2023/10/08 03:19:19;;;;;;;4.75;1.73;;;;;;;;;;5018183;28;20046;-81
2023/10/08 03:21:56;;;;;;;2.25;0.95;;;;;;;;;;5026382;28;20062;-80
2023/10/08 03:27:11;;;;;;;0.68;0.52;;;;;;;;;;5017774;28;20052;-79
2023/10/08 03:29:44;;;;;;;0.85;0.60;;;;;;;;;;5002460;28;20074;-79
2023/10/08 03:32:15;;;;;;;1.17;0.52;;;;;;;;;;5008867;28;20052;-80
2023/10/08 03:34:45;;;;;;;0.50;0.40;;;;;;;;;;5026210;28;20036;-79
2023/10/08 03:37:19;;;;;;;0.65;0.50;;;;;;;;;;5041675;28;20049;-81
2023/10/08 03:40:00;;;;;;;0.50;0.40;;;;;;;;;;5010337;28;20077;-80
2023/10/08 03:42:33;;;;;;;0.88;0.40;;;;;;;;;;5009929;28;20050;-80
2023/10/08 03:45:09;;;;;;;1.10;0.40;;;;;;;;;;5009781;28;20045;-79
2023/10/08 03:47:37;;;;;;;0.50;0.40;;;;;;;;;;5018945;28;20553;-80
2023/10/08 03:50:06;;;;;;;0.43;0.28;;;;;;;;;;5032250;28;20065;-80
2023/10/08 03:52:36;;;;;;;0.43;0.32;;;;;;;;;;5034238;28;20075;-79
2023/10/08 03:57:49;;;;;;;0.10;0.10;;;;;;;;;;5013489;28;20058;-80
2023/10/08 04:00:18;;;;;;;0.10;0.05;;;;;;;;;;5039540;28;20038;-80
2023/10/08 04:03:01;;;;;;;0.03;0.03;;;;;;;;;;5015036;28;20038;-80
2023/10/08 04:05:40;;;;;;;0.00;0.00;;;;;;;;;;5010417;28;20041;-82
2023/10/08 04:08:42;;;;;;;0.35;0.10;;;;;;;;;;5021900;28;20037;-80
2023/10/08 04:11:22;;;;;;;0.00;0.00;;;;;;;;;;5011809;28;20061;-80
2023/10/08 04:13:50;;;;;;;0.00;0.00;;;;;;;;;;5017969;28;20973;-81
2023/10/08 04:16:19;;;;;;;0.17;0.10;;;;;;;;;;5034601;28;20108;-80
2023/10/08 04:18:50;;;;;;;0.03;0.03;;;;;;;;;;5017562;28;20041;-81
2023/10/08 04:21:20;;;;;;;0.08;0.00;;;;;;;;;;5012054;28;20435;-79
2023/10/08 04:23:51;;;;;;;0.10;0.10;;;;;;;;;;5024724;28;20520;-80
2023/10/08 04:26:23;;;;;;;0.10;0.00;;;;;;;;;;5017079;28;20500;-81
2023/10/08 04:28:54;;;;;;;0.10;0.10;;;;;;;;;;5017371;28;20045;-81
2023/10/08 04:31:24;;;;;;;0.10;0.05;;;;;;;;;;5005920;28;20436;-81
2023/10/08 04:33:52;;;;;;;0.20;0.20;;;;;;;;;;5012418;28;20104;-80
2023/10/08 04:36:19;;;;;;;0.00;0.00;;;;;;;;;;5038280;28;20074;-79
2023/10/08 04:38:54;;;;;;;0.20;0.15;;;;;;;;;;5047058;28;20080;-80
2023/10/08 04:41:27;;;;;;;0.17;0.13;;;;;;;;;;5010752;28;20049;-81
2023/10/08 04:43:55;;;;;;;0.20;0.10;;;;;;;;;;5019444;28;20041;-80
2023/10/08 04:47:08;;;;;;;0.13;0.10;;;;;;;;;;5022173;28;20080;-81
2023/10/08 04:49:19;;;;;;;0.40;0.30;;;;;;;;;;5008263;28;20042;-81
2023/10/08 04:51:46;;;;;;;0.60;0.20;;;;;;;;;;5010699;28;21292;-80
2023/10/08 04:54:18;;;;;;;0.20;0.20;;;;;;;;;;5014635;28;20053;-78
2023/10/08 04:56:45;;;;;;;0.80;0.30;;;;;;;;;;5018156;28;20403;-81
2023/10/08 04:59:11;;;;;;;0.22;0.20;;;;;;;;;;5018259;28;20477;-81
2023/10/08 05:01:40;;;;;;;0.60;0.38;;;;;;;;;;5025494;28;20045;-80
2023/10/08 05:04:23;;;;;;;0.10;0.10;;;;;;;;;;5021376;28;20169;-80
2023/10/08 05:07:00;;;;;;;0.35;0.30;;;;;;;;;;5013072;28;20232;-80
2023/10/08 05:09:45;;;;;;;;;;;;;;;;;;5004663;28;20832;-81
2023/10/08 05:23:20;;;;;;;0.08;0.08;;;;;;;;;;5016228;28;20043;-79
2023/10/08 05:28:36;;;;;;;0.20;0.10;;;;;;;;;;5011904;28;20400;-81
2023/10/08 05:34:14;;;;;;;0.15;0.03;;;;;;;;;;5006543;28;20066;-81
2023/10/08 05:36:51;;;;;;;0.80;0.10;;;;;;;;;;5014349;28;20428;-83
2023/10/08 05:39:29;;;;;;;0.15;0.10;;;;;;;;;;5016197;28;20064;-80
2023/10/08 05:42:31;;;;;;;0.70;0.10;;;;;;;;;;5017814;28;20042;-80
2023/10/08 05:45:35;;;;;;;0.10;0.10;;;;;;;;;;5010994;28;20080;-82
2023/10/08 05:48:07;;;;;;;0.20;0.17;;;;;;;;;;5017913;28;21815;-81
2023/10/08 05:50:39;;;;;;;0.00;0.00;;;;;;;;;;5022585;28;20062;-85
2023/10/08 05:53:19;;;;;;;1.00;0.10;;;;;;;;;;5010117;28;20323;-83
2023/10/08 05:56:00;;;;;;;0.13;0.10;;;;;;;;;;5010663;28;20048;-79
2023/10/08 05:58:45;;;;;;;0.10;0.10;;;;;;;;;;5030154;28;20081;-84
2023/10/08 06:01:26;;;;;;;0.20;0.15;;;;;;;;;;4998120;28;20054;-81
2023/10/08 06:04:20;;;;;;;0.10;0.10;;;;;;;;;;5011499;28;20057;-82
2023/10/08 06:06:57;;;;;;;0.43;0.20;;;;;;;;;;5021498;28;20640;-83
2023/10/08 06:09:35;;;;;;;2.72;0.30;;;;;;;;;;5016972;28;20098;-82
2023/10/08 06:12:12;;;;;;;1.52;0.38;;;;;;;;;;5012796;28;20049;-84
2023/10/08 06:14:52;;;;;;;0.47;0.25;;;;;;;;;;4998734;28;20046;-84
2023/10/08 06:17:55;;;;;;;1.48;0.40;;;;;;;;;;5017305;28;20042;-82
2023/10/08 06:20:26;;;;;;;1.10;0.50;;;;;;;;;;5026837;28;20198;-85
2023/10/08 06:22:58;;;;;;;1.85;0.40;;;;;;;;;;5025739;28;20041;-83
2023/10/08 06:25:27;;;;;;;1.40;0.45;;;;;;;;;;5042128;28;20153;-86
2023/10/08 06:28:02;;;;;;;0.28;0.20;;;;;;;;;;5034245;28;20057;-83
2023/10/08 06:30:29;;;;;;;2.07;0.40;;;;;;;;;;5059459;28;20045;-86
2023/10/08 06:32:56;;;;;;;1.10;0.40;;;;;;;;;;5040933;28;20044;-85
2023/10/08 06:35:26;;;;;;;1.60;0.63;;;;;;;;;;5016119;28;20042;-80
2023/10/08 06:37:55;;;;;;;0.40;0.30;;;;;;;;;;5040021;28;20049;-83
2023/10/08 06:46:03;;;;;;;2.70;0.57;;;;;;;;;;4991600;28;20038;-83
2023/10/08 06:48:30;;;;;;;2.88;0.60;;;;;;;;;;5008682;28;20065;-82
2023/10/08 06:50:57;;;;;;;2.95;0.52;;;;;;;;;;5011366;28;20037;-82
2023/10/08 06:53:29;;;;;;;0.73;0.40;;;;;;;;;;5008227;28;20045;-84
2023/10/08 06:56:03;;;;;;;1.00;0.35;;;;;;;;;;4991120;28;20046;-85
2023/10/08 06:58:34;;;;;;;4.45;0.50;;;;;;;;;;5028062;28;20077;-83
2023/10/08 07:01:08;;;;;;;0.95;0.50;;;;;;;;;;5021628;28;20057;-85
2023/10/08 07:03:39;;;;;;;1.52;0.55;;;;;;;;;;5014083;28;20508;-84
2023/10/08 07:06:31;;;;;;;1.20;0.57;;;;;;;;;;5004391;28;20052;-86
2023/10/08 07:08:59;;;;;;;2.70;0.50;;;;;;;;;;5049726;28;20570;-85
2023/10/08 07:11:29;;;;;;;1.00;0.50;;;;;;;;;;5025341;28;20103;-85
2023/10/08 07:13:56;;;;;;;0.68;0.40;;;;;;;;;;5018793;28;20050;-85
2023/10/08 07:16:23;;;;;;;1.33;0.60;;;;;;;;;;5011632;28;20054;-86
2023/10/08 07:18:52;;;;;;;1.15;0.50;;;;;;;;;;5009582;28;20049;-86
2023/10/08 07:21:28;;;;;;;3.20;0.50;;;;;;;;;;5031667;28;20100;-86
2023/10/08 07:23:59;;;;;;;0.88;0.50;;;;;;;;;;5032293;28;20048;-86
2023/10/08 07:26:35;;;;;;;2.88;0.60;;;;;;;;;;5040568;28;20099;-86
2023/10/08 07:29:09;;;;;;;1.55;0.60;;;;;;;;;;5032821;28;20050;-83
2023/10/08 07:31:37;;;;;;;0.70;0.40;;;;;;;;;;5052837;28;20129;-86
2023/10/08 07:34:46;;;;;;;0.82;0.40;;;;;;;;;;5034635;28;20041;-85
2023/10/08 07:36:54;;;;;;;1.00;0.43;;;;;;;;;;5017759;28;21093;-83
2023/10/08 07:41:51;;;;;;;1.05;0.40;;;;;;;;;;5030226;28;20530;-81
2023/10/08 07:44:21;;;;;;;0.50;0.30;;;;;;;;;;5031756;28;20054;-80
2023/10/08 07:46:49;;;;;;;0.98;0.38;;;;;;;;;;5020467;28;20099;-83
2023/10/08 07:49:17;;;;;;;2.58;0.50;;;;;;;;;;5027936;28;20634;-83
2023/10/08 07:51:50;;;;;;;2.22;0.80;;;;;;;;;;5036040;28;20049;-82
2023/10/08 07:54:29;;;;;;;1.70;0.30;;;;;;;;;;5018494;28;20111;-85
2023/10/08 07:57:08;;;;;;;1.58;0.70;;;;;;;;;;5039828;28;20092;-85
2023/10/08 07:59:46;;;;;;;5.45;0.68;;;;;;;;;;5038429;28;20050;-84
2023/10/08 08:02:14;;;;;;;1.10;0.50;;;;;;;;;;5040890;28;20105;-84
2023/10/08 08:04:45;;;;;;;2.33;0.80;;;;;;;;;;5064430;28;20102;-81
2023/10/08 08:07:17;;;;;;;5.82;1.17;;;;;;;;;;5039732;28;20055;-85
2023/10/08 08:09:59;;;;;;;4.13;0.80;;;;;;;;;;4992052;28;20037;-83
2023/10/08 08:12:28;;;;;;;0.93;0.57;;;;;;;;;;5029114;28;20046;-83
2023/10/08 08:15:14;;;;;;;3.10;0.73;;;;;;;;;;5008483;28;20037;-87
2023/10/08 08:17:42;;;;;;;1.63;0.80;;;;;;;;;;5036873;28;20057;-86
2023/10/08 08:20:18;;;;;;;2.38;0.85;;;;;;;;;;5025843;28;20589;-84
2023/10/08 08:22:54;;;;;;;2.28;0.98;;;;;;;;;;5010719;28;20461;-84
2023/10/08 08:25:34;;;;;;;5.07;1.35;;;;;;;;;;5032741;28;20040;-84
2023/10/08 08:28:01;;;;;;;3.60;1.40;;;;;;;;;;5054852;28;20131;-85
2023/10/08 08:30:28;;;;;;;4.18;1.50;;;;;;;;;;5043514;28;20050;-86
2023/10/08 08:32:56;;;;;;;6.57;2.40;;;;;;;;;;5034902;28;20052;-85
2023/10/08 08:35:24;;;;;;;6.70;2.28;;;;;;;;;;5031047;28;20053;-85
2023/10/08 08:37:51;;;;;;;6.20;0.75;;;;;;;;;;5028043;28;20049;-85
2023/10/08 08:40:21;;;;;;;5.80;2.35;;;;;;;;;;5010815;28;20045;-83
2023/10/08 08:42:50;;;;;;;11.95;2.45;;;;;;;;;;5044438;28;20044;-84
2023/10/08 08:45:20;;;;;;;11.00;2.20;;;;;;;;;;5044301;28;20165;-84
2023/10/08 08:47:47;;;;;;;6.50;1.27;;;;;;;;;;5033773;28;20072;-84
2023/10/08 08:50:14;;;;;;;12.82;3.28;;;;;;;;;;5024885;28;20962;-85
2023/10/08 08:52:41;;;;;;;5.32;1.60;;;;;;;;;;5027691;28;20041;-85
2023/10/08 08:55:14;;;;;;;2.72;1.30;;;;;;;;;;5042294;28;20076;-84
2023/10/08 08:57:43;;;;;;;4.82;1.45;;;;;;;;;;5008901;28;20053;-82
2023/10/08 09:00:14;;;;;;;3.92;1.33;;;;;;;;;;5031374;28;20743;-83
2023/10/08 09:02:41;;;;;;;5.53;1.13;;;;;;;;;;5026809;28;20065;-87
2023/10/08 09:05:24;;;;;;;5.47;1.10;;;;;;;;;;5008680;28;20050;-84
2023/10/08 09:07:52;;;;;;;7.25;2.13;;;;;;;;;;5018795;28;20114;-85
2023/10/08 09:10:25;;;;;;;8.00;2.15;;;;;;;;;;5014474;28;20054;-85
2023/10/08 09:12:52;;;;;;;4.40;1.30;;;;;;;;;;5010783;28;20459;-83
2023/10/08 09:15:22;;;;;;;7.18;1.88;;;;;;;;;;5012119;28;20042;-84
2023/10/08 09:17:49;;;;;;;5.53;1.38;;;;;;;;;;5026427;28;20056;-84
2023/10/08 09:20:17;;;;;;;2.70;1.10;;;;;;;;;;5026481;28;20549;-84
2023/10/08 09:22:43;;;;;;;2.55;1.08;;;;;;;;;;5016095;28;20049;-83
2023/10/08 09:25:14;;;;;;;4.05;0.90;;;;;;;;;;5025049;28;20700;-83
2023/10/08 09:27:46;;;;;;;4.28;1.23;;;;;;;;;;5022917;28;20377;-83
2023/10/08 09:30:18;;;;;;;7.50;1.20;;;;;;;;;;5025340;28;20053;-85
2023/10/08 09:32:48;;;;;;;5.68;1.10;;;;;;;;;;5004527;28;20042;-85
2023/10/08 09:35:15;;;;;;;2.25;1.05;;;;;;;;;;5002930;28;20092;-84
2023/10/08 09:37:43;;;;;;;3.45;1.25;;;;;;;;;;5003074;28;20046;-85
2023/10/08 09:40:11;;;;;;;2.55;0.85;;;;;;;;;;5002408;28;20058;-85
2023/10/08 09:42:38;;;;;;;2.88;1.00;;;;;;;;;;5016457;28;20049;-84
2023/10/08 09:45:08;;;;;;;4.43;1.00;;;;;;;;;;5002216;28;20050;-84
2023/10/08 09:47:38;;;;;;;3.38;1.08;;;;;;;;;;5007092;28;20045;-84
2023/10/08 09:50:08;;;;;;;2.67;0.93;;;;;;;;;;5002180;28;20101;-85
2023/10/08 09:52:39;;;;;;;1.65;0.98;;;;;;;;;;5004822;28;20057;-83
2023/10/08 09:55:12;;;;;;;2.65;1.00;;;;;;;;;;5016503;28;20512;-84
2023/10/08 09:57:39;;;;;;;2.60;0.93;;;;;;;;;;5010822;28;20124;-83
2023/10/08 10:00:14;;;;;;;5.13;1.00;;;;;;;;;;5003921;28;20542;-83
2023/10/08 10:02:43;;;;;;;1.52;0.80;;;;;;;;;;5016969;28;20146;-83
2023/10/08 10:05:18;;;;;;;4.03;1.00;;;;;;;;;;5013605;28;20110;-83
2023/10/08 10:07:47;;;;;;;1.88;0.98;;;;;;;;;;5014617;28;20063;-84
2023/10/08 10:10:38;;;;;;;2.45;1.25;;;;;;;;;;5009443;28;20054;-82
2023/10/08 10:13:07;;;;;;;4.78;1.10;;;;;;;;;;5007729;28;20053;-84
2023/10/08 10:15:38;;;;;;;3.92;1.20;;;;;;;;;;5031999;28;20064;-84
2023/10/08 10:18:09;;;;;;;2.75;0.98;;;;;;;;;;5044495;28;20053;-85
2023/10/08 10:20:40;;;;;;;2.65;1.05;;;;;;;;;;5046819;28;20052;-86
2023/10/08 10:23:42;;;;;;;2.75;1.10;;;;;;;;;;5053849;28;20050;-86
2023/10/08 10:26:30;;;;;;;5.82;1.38;;;;;;;;;;5045240;28;20044;-84
2023/10/08 10:29:09;;;;;;;4.72;1.20;;;;;;;;;;5043587;28;20045;-84
2023/10/08 10:31:39;;;;;;;6.07;1.17;;;;;;;;;;5056625;28;20297;-87
2023/10/08 10:34:08;;;;;;;1.48;0.90;;;;;;;;;;5047109;28;20041;-85
2023/10/08 10:36:35;;;;;;;4.28;1.25;;;;;;;;;;5042202;28;20045;-81
2023/10/08 10:39:15;;;;;;;3.92;1.05;;;;;;;;;;5061461;28;20043;-86
2023/10/08 10:41:45;;;;;;;4.93;1.67;;;;;;;;;;5008053;28;20041;-84
2023/10/08 10:44:13;;;;;;;4.45;1.20;;;;;;;;;;5020002;28;20053;-83
2023/10/08 10:46:42;;;;;;;3.50;1.40;;;;;;;;;;5035325;28;20056;-84
2023/10/08 10:49:21;;;;;;;2.83;1.17;;;;;;;;;;5039612;28;20374;-81
2023/10/08 10:51:48;;;;;;;6.13;1.30;;;;;;;;;;5044570;28;20045;-84
2023/10/08 10:54:20;;;;;;;7.25;1.30;;;;;;;;;;5031249;28;20556;-83
2023/10/08 10:56:47;;;;;;;5.68;1.40;;;;;;;;;;5040246;28;20107;-83
2023/10/08 10:59:22;;;;;;;4.40;1.42;;;;;;;;;;5047356;28;20075;-84
2023/10/08 11:02:20;;;;;;;3.53;1.17;;;;;;;;;;5022567;28;20131;-84
2023/10/08 11:04:48;;;;;;;4.68;1.60;;;;;;;;;;5037473;28;20377;-84
2023/10/08 11:07:20;;;;;;;4.93;1.50;;;;;;;;;;5040163;28;20794;-83
2023/10/08 11:09:48;;;;;;;3.63;1.30;;;;;;;;;;5040943;28;20092;-81
2023/10/08 11:12:18;;;;;;;4.00;1.30;;;;;;;;;;5041843;28;20063;-83
2023/10/08 11:14:57;;;;;;;4.20;1.35;;;;;;;;;;5026134;28;20051;-83
2023/10/08 11:17:24;;;;;;;3.30;1.17;;;;;;;;;;5019257;28;20045;-81
2023/10/08 11:19:52;;;;;;;5.20;1.63;;;;;;;;;;5007599;28;20045;-83
2023/10/08 11:22:22;;;;;;;4.95;1.38;;;;;;;;;;4992485;28;20050;-82
2023/10/08 11:24:53;;;;;;;5.88;1.38;;;;;;;;;;5012923;28;20587;-84
2023/10/08 11:27:35;;;;;;;5.10;1.30;;;;;;;;;;5021052;28;20069;-84
2023/10/08 11:30:02;;;;;;;3.78;1.50;;;;;;;;;;5021991;28;20260;-83
2023/10/08 11:32:32;;;;;;;7.78;1.70;;;;;;;;;;5021145;28;20056;-83
2023/10/08 11:34:59;;;;;;;3.75;1.40;;;;;;;;;;5002681;28;20096;-84
2023/10/08 11:37:27;;;;;;;4.93;1.48;;;;;;;;;;5033903;28;20704;-82
2023/10/08 11:39:58;;;;;;;2.85;1.00;;;;;;;;;;5036255;28;20046;-82
2023/10/08 11:45:17;;;;;;;6.90;1.40;;;;;;;;;;5024449;28;20049;-83
2023/10/08 11:47:45;;;;;;;7.85;1.30;;;;;;;;;;5033758;28;21113;-80
2023/10/08 11:50:18;;;;;;;3.92;1.35;;;;;;;;;;5032286;28;20122;-82
2023/10/08 11:52:46;;;;;;;8.63;1.50;;;;;;;;;;5045388;28;20120;-82
2023/10/08 11:55:18;;;;;;;6.70;1.40;;;;;;;;;;5022413;28;20073;-84
2023/10/08 11:57:48;;;;;;;5.40;1.40;;;;;;;;;;5035415;28;20080;-82
2023/10/08 12:00:27;;;;;;;4.35;1.30;;;;;;;;;;5033845;28;20092;-82
2023/10/08 12:03:01;;;;;;;3.50;1.35;;;;;;;;;;5033826;28;20087;-84
2023/10/08 12:05:29;;;;;;;5.70;1.55;;;;;;;;;;5029866;28;20437;-84
2023/10/08 12:07:57;;;;;;;4.40;1.52;;;;;;;;;;5024973;28;20049;-80
2023/10/08 12:10:25;;;;;;;5.38;1.10;;;;;;;;;;5003573;28;20053;-81
2023/10/08 12:12:52;;;;;;;2.92;1.10;;;;;;;;;;5037878;28;20049;-80
2023/10/08 12:15:19;;;;;;;5.18;1.30;;;;;;;;;;5037813;28;20041;-83
2023/10/08 12:18:08;;;;;;;3.95;1.20;;;;;;;;;;5031732;28;20042;-83
2023/10/08 12:20:43;;;;;;;3.63;1.30;;;;;;;;;;5040802;28;21222;-84
2023/10/08 12:23:10;;;;;;;3.40;1.17;;;;;;;;;;5057527;28;20046;-83
2023/10/08 12:25:37;;;;;;;7.13;1.52;;;;;;;;;;5052230;28;20060;-82
2023/10/08 12:28:05;;;;;;;5.85;1.48;;;;;;;;;;5025631;28;21650;-80
2023/10/08 12:30:32;;;;;;;5.38;1.30;;;;;;;;;;5035987;28;20045;-82
2023/10/08 12:32:59;;;;;;;4.72;1.20;;;;;;;;;;5032110;28;20049;-81
2023/10/08 12:35:29;;;;;;;5.75;1.38;;;;;;;;;;5032643;28;20773;-81
2023/10/08 12:37:56;;;;;;;7.43;1.40;;;;;;;;;;5005830;28;20049;-82
2023/10/08 12:40:24;;;;;;;7.05;1.20;;;;;;;;;;5005859;28;20109;-81
2023/10/08 12:42:51;;;;;;;4.97;1.20;;;;;;;;;;5010207;28;20049;-83
2023/10/08 12:45:21;;;;;;;3.80;1.23;;;;;;;;;;5019194;28;20145;-80
2023/10/08 12:47:51;;;;;;;4.22;1.00;;;;;;;;;;5010140;28;20559;-78
2023/10/08 12:50:42;;;;;;;4.03;1.40;;;;;;;;;;5018226;28;20109;-83
2023/10/08 12:56:58;;;;;;;3.25;1.10;;;;;;;;;;5019124;28;20111;-84
2023/10/08 12:59:26;;;;;;;5.40;1.17;;;;;;;;;;5009939;28;20049;-80
2023/10/08 13:01:55;;;;;;;5.10;1.15;;;;;;;;;;5008978;28;20783;-79
2023/10/08 13:04:27;;;;;;;4.07;1.27;;;;;;;;;;5010016;28;20065;-82
2023/10/08 13:07:00;;;;;;;2.53;1.00;;;;;;;;;;5000561;28;20480;-79
2023/10/08 13:09:30;;;;;;;5.43;1.20;;;;;;;;;;5003759;28;20050;-82
2023/10/08 13:12:00;;;;;;;2.67;1.10;;;;;;;;;;5006968;28;20080;-82
2023/10/08 13:14:27;;;;;;;2.35;1.20;;;;;;;;;;5019651;28;20065;-81
2023/10/08 13:16:54;;;;;;;3.25;0.80;;;;;;;;;;5020988;28;20045;-79
2023/10/08 13:19:23;;;;;;;4.18;1.35;;;;;;;;;;4990515;28;20078;-80
2023/10/08 13:21:53;;;;;;;3.47;1.40;;;;;;;;;;5020374;28;20382;-81
2023/10/08 13:24:21;;;;;;;2.83;0.95;;;;;;;;;;5004258;28;20083;-79
2023/10/08 13:26:51;;;;;;;5.40;1.48;;;;;;;;;;5005228;28;20471;-78
2023/10/08 13:29:18;;;;;;;5.13;1.17;;;;;;;;;;5004146;28;20508;-79
2023/10/08 13:31:46;;;;;;;5.72;1.00;;;;;;;;;;5013288;28;20060;-80
2023/10/08 13:34:15;;;;;;;4.07;1.13;;;;;;;;;;5012829;28;20077;-80
2023/10/08 13:36:46;;;;;;;4.25;0.98;;;;;;;;;;5034215;28;20049;-81
2023/10/08 13:39:18;;;;;;;4.30;1.35;;;;;;;;;;5029480;28;20330;-82
2023/10/08 13:41:47;;;;;;;5.40;1.23;;;;;;;;;;5036814;28;20426;-81
2023/10/08 13:44:15;;;;;;;5.25;1.27;;;;;;;;;;5038363;28;20049;-82
2023/10/08 13:46:48;;;;;;;5.32;1.10;;;;;;;;;;5035298;28;20057;-81
2023/10/08 13:49:16;;;;;;;3.72;1.13;;;;;;;;;;5017827;28;20049;-83
2023/10/08 13:51:44;;;;;;;3.35;1.10;;;;;;;;;;5039623;28;20041;-81
2023/10/08 13:54:11;;;;;;;6.78;1.20;;;;;;;;;;5047182;28;20063;-83
2023/10/08 13:56:38;;;;;;;7.05;1.40;;;;;;;;;;5040247;28;20026;-80
2023/10/08 13:59:14;;;;;;;6.18;1.20;;;;;;;;;;5044103;28;20257;-79
2023/10/08 14:01:45;;;;;;;8.40;1.23;;;;;;;;;;5043805;28;20053;-81
2023/10/08 14:04:17;;;;;;;3.95;1.25;;;;;;;;;;5024896;28;20080;-79
2023/10/08 14:06:51;;;;;;;5.20;1.08;;;;;;;;;;5029230;28;20073;-77
2023/10/08 14:09:30;;;;;;;3.38;1.00;;;;;;;;;;5045955;28;20047;-82
2023/10/08 14:11:59;;;;;;;4.47;1.27;;;;;;;;;;5025741;28;20053;-80
2023/10/08 14:14:29;;;;;;;3.45;1.10;;;;;;;;;;5023591;28;20042;-80
2023/10/08 14:17:05;;;;;;;3.83;0.90;;;;;;;;;;5023725;28;20073;-80
2023/10/08 14:19:51;;;;;;;6.45;1.27;;;;;;;;;;5048135;28;20101;-79
2023/10/08 14:22:21;;;;;;;5.68;0.93;;;;;;;;;;5026558;28;20470;-80
2023/10/08 14:24:58;;;;;;;5.55;1.38;;;;;;;;;;5038235;28;20048;-79
2023/10/08 14:27:31;;;;;;;4.57;1.13;;;;;;;;;;5036086;28;20140;-82
2023/10/08 14:30:04;;;;;;;3.83;1.05;;;;;;;;;;5048965;28;20049;-80
2023/10/08 14:32:32;;;;;;;4.85;0.77;;;;;;;;;;5031924;28;20330;-80
2023/10/08 14:43:20;;;;;;;2.20;0.80;;;;;;;;;;5038486;28;20099;-79
2023/10/08 14:45:47;;;;;;;4.95;1.30;;;;;;;;;;5020929;28;21217;-79
2023/10/08 14:48:13;;;;;;;4.07;1.23;;;;;;;;;;5030248;28;20679;-81
2023/10/08 14:50:41;;;;;;;2.78;1.13;;;;;;;;;;5023637;28;20042;-79
2023/10/08 14:53:09;;;;;;;3.60;1.33;;;;;;;;;;5028975;28;20077;-79
2023/10/08 14:55:36;;;;;;;4.07;1.25;;;;;;;;;;5031110;28;20045;-79
2023/10/08 14:58:10;;;;;;;2.40;1.23;;;;;;;;;;5059515;28;20493;-79
2023/10/08 15:00:38;;;;;;;3.70;1.50;;;;;;;;;;5054667;28;20249;-79
2023/10/08 15:03:06;;;;;;;6.97;1.60;;;;;;;;;;5045054;28;20049;-79
2023/10/08 15:05:33;;;;;;;6.28;1.38;;;;;;;;;;5040715;28;20064;-80
2023/10/08 15:08:00;;;;;;;7.55;1.15;;;;;;;;;;5047114;28;20550;-79
2023/10/08 15:10:27;;;;;;;2.75;1.10;;;;;;;;;;5033586;28;20045;-78
2023/10/08 15:12:53;;;;;;;3.85;1.00;;;;;;;;;;5041884;28;20470;-76
2023/10/08 15:15:24;;;;;;;3.65;1.20;;;;;;;;;;5037562;28;20065;-75
2023/10/08 15:17:54;;;;;;;7.45;1.17;;;;;;;;;;5025072;28;20529;-77
2023/10/08 15:20:23;;;;;;;4.43;1.10;;;;;;;;;;5028489;28;20589;-76
2023/10/08 15:22:51;;;;;;;4.65;1.10;;;;;;;;;;5035896;28;20056;-78
2023/10/08 15:25:18;;;;;;;6.18;1.20;;;;;;;;;;5038363;28;20056;-79
2023/10/08 15:27:46;;;;;;;4.93;0.93;;;;;;;;;;5042050;28;20120;-79
2023/10/08 15:30:19;;;;;;;3.55;1.33;;;;;;;;;;5040875;28;20080;-79
2023/10/08 15:32:47;;;;;;;4.53;1.48;;;;;;;;;;5044598;28;20029;-78
2023/10/08 15:35:19;;;;;;;4.10;1.38;;;;;;;;;;5043199;28;20053;-77
2023/10/08 15:37:47;;;;;;;5.72;1.30;;;;;;;;;;5037866;28;20049;-78
2023/10/08 15:40:20;;;;;;;4.82;1.40;;;;;;;;;;5040438;28;20073;-78
2023/10/08 15:42:50;;;;;;;4.82;1.23;;;;;;;;;;5045165;28;20057;-77
2023/10/08 15:45:18;;;;;;;7.22;1.30;;;;;;;;;;5026518;28;20432;-77
2023/10/08 15:47:44;;;;;;;3.20;1.30;;;;;;;;;;5023921;28;20101;-76
2023/10/08 15:50:11;;;;;;;6.05;1.55;;;;;;;;;;4999984;28;20050;-77
2023/10/08 15:52:38;;;;;;;5.28;1.42;;;;;;;;;;5009496;28;20576;-77
2023/10/08 15:55:05;;;;;;;2.80;1.15;;;;;;;;;;5024737;28;20033;-76
2023/10/08 15:57:32;;;;;;;6.20;1.67;;;;;;;;;;5014159;28;20049;-77